Time;durP1;ratioP1;P1;durP2;ratioP2;P2;SDS_P1;SDS_P2;PMS_P1;PMS_P2;Temp;Humidity;BMP_temperature;BMP_pressure;BME280_temperature;BME280_humidity;BME280_pressure;Samples;Min_cycle;Max_cycle;Signal;HPM_P1;HPM_P2
2023/09/23 00:00:13;;;;;;;1.77;1.00;;;;;;;12.55;100.00;154582.34;4964816;28;20487;-92
2023/09/23 00:02:43;;;;;;;1.80;1.30;;;;;;;12.55;100.00;154583.59;4980264;28;20629;-92
2023/09/23 00:05:12;;;;;;;1.53;1.27;;;;;;;12.50;100.00;154569.31;4971371;28;20446;-92
2023/09/23 00:07:39;;;;;;;1.93;1.03;;;;;;;12.45;100.00;154556.34;4965348;28;20826;-92
2023/09/23 00:10:08;;;;;;;1.60;1.40;;;;;;;12.48;100.00;154564.16;4973029;28;21023;-92
2023/09/23 00:12:35;;;;;;;2.17;1.23;;;;;;;12.44;100.00;154553.78;4978663;28;20495;-92
2023/09/23 00:15:03;;;;;;;1.83;1.33;;;;;;;12.43;100.00;154551.19;4971615;28;20932;-92
2023/09/23 00:17:29;;;;;;;2.50;1.47;;;;;;;12.48;100.00;154564.16;4973090;28;20860;-92
2023/09/23 00:19:57;;;;;;;1.60;1.40;;;;;;;12.47;100.00;154561.59;4971046;28;20490;-92
2023/09/23 00:22:24;;;;;;;2.53;1.30;;;;;;;12.47;100.00;154561.59;4972839;28;20451;-92
2023/09/23 00:24:52;;;;;;;1.87;1.40;;;;;;;12.46;100.00;154560.28;4987684;28;20447;-92
2023/09/23 00:27:19;;;;;;;1.30;0.90;;;;;;;12.48;100.00;154565.44;4966543;28;20511;-92
2023/09/23 00:29:45;;;;;;;1.57;1.10;;;;;;;12.51;100.00;154571.94;4970468;28;20831;-92
2023/09/23 00:32:13;;;;;;;3.30;1.00;;;;;;;12.48;100.00;154564.16;4981715;28;20462;-92
2023/09/23 00:34:40;;;;;;;2.37;1.40;;;;;;;12.46;100.00;154558.97;4971139;28;20481;-92
2023/09/23 00:37:08;;;;;;;1.60;1.30;;;;;;;12.46;100.00;154558.97;4964718;28;20466;-92
2023/09/23 00:39:41;;;;;;;1.50;1.00;;;;;;;12.44;100.00;154555.09;4965640;28;20833;-91
2023/09/23 00:42:10;;;;;;;2.03;1.00;;;;;;;12.41;100.00;154546.00;4985667;28;20545;-92
2023/09/23 00:44:39;;;;;;;1.30;0.90;;;;;;;12.34;100.00;154527.88;4983989;28;20458;-92
2023/09/23 00:47:06;;;;;;;1.40;0.97;;;;;;;12.32;100.00;154522.66;4978437;28;20971;-91
2023/09/23 00:49:33;;;;;;;1.40;1.13;;;;;;;12.33;100.00;154526.56;4949753;28;20469;-92
2023/09/23 00:52:01;;;;;;;1.20;0.70;;;;;;;12.26;100.00;154507.13;4970954;28;20488;-92
2023/09/23 00:54:30;;;;;;;3.33;0.90;;;;;;;12.23;100.00;154499.34;4965854;28;20463;-92
2023/09/23 00:56:58;;;;;;;1.27;0.93;;;;;;;12.19;100.00;154491.56;4948217;28;20453;-92
2023/09/23 00:59:27;;;;;;;1.70;1.20;;;;;;;12.15;100.00;154481.16;4970344;28;20977;-92
2023/09/23 01:01:56;;;;;;;1.27;0.73;;;;;;;12.15;100.00;154481.16;4962588;28;20506;-92
2023/09/23 01:04:24;;;;;;;9.40;1.00;;;;;;;12.13;100.00;154474.66;4947394;28;20809;-92
2023/09/23 01:06:50;;;;;;;1.53;0.97;;;;;;;12.04;100.00;154452.69;4976236;28;20438;-92
2023/09/23 01:09:20;;;;;;;1.63;1.20;;;;;;;12.06;100.00;154457.84;4979858;28;20473;-90
2023/09/23 01:11:50;;;;;;;2.47;1.00;;;;;;;11.98;100.00;154437.09;4946967;28;20458;-92
2023/09/23 01:14:21;;;;;;;1.63;1.10;;;;;;;11.94;100.00;154425.47;4964532;28;20447;-92
2023/09/23 01:16:49;;;;;;;2.33;1.20;;;;;;;11.89;100.00;154413.75;4970361;28;20528;-93
2023/09/23 01:19:18;;;;;;;1.73;1.00;;;;;;;11.86;100.00;154405.97;4967385;28;20833;-92
2023/09/23 01:21:47;;;;;;;1.63;1.00;;;;;;;11.83;100.00;154398.22;4950575;28;20458;-92
2023/09/23 01:24:16;;;;;;;1.50;0.80;;;;;;;11.80;100.00;154390.44;4970175;28;20961;-92
2023/09/23 01:26:43;;;;;;;1.10;0.80;;;;;;;11.79;100.00;154387.84;4953634;28;20442;-92
2023/09/23 01:29:11;;;;;;;1.90;1.20;;;;;;;11.76;100.00;154380.06;4956459;28;20458;-91
2023/09/23 01:31:39;;;;;;;1.67;0.90;;;;;;;11.65;100.00;154351.50;4950910;28;20832;-92
2023/09/23 01:34:06;;;;;;;1.40;0.80;;;;;;;11.60;100.00;154339.84;4977641;28;20890;-91
2023/09/23 01:36:33;;;;;;;1.53;1.00;;;;;;;11.65;100.00;154351.50;4959420;28;20526;-91
2023/09/23 01:39:00;;;;;;;1.27;0.83;;;;;;;11.55;100.00;154326.88;4980974;28;20476;-92
2023/09/23 01:41:28;;;;;;;1.53;1.20;;;;;;;11.50;100.00;154312.63;4966474;28;20443;-92
2023/09/23 01:43:55;;;;;;;1.30;0.80;;;;;;;11.49;100.00;154310.06;4946925;28;20467;-91
2023/09/23 01:46:21;;;;;;;1.30;1.00;;;;;;;11.49;100.00;154311.31;4968471;28;20537;-92
2023/09/23 01:48:48;;;;;;;1.73;0.60;;;;;;;11.42;100.00;154291.91;4962066;28;20457;-91
2023/09/23 01:51:17;;;;;;;1.10;0.80;;;;;;;11.41;100.00;154289.34;4951054;28;20461;-91
2023/09/23 01:53:44;;;;;;;1.20;0.67;;;;;;;11.34;100.00;154272.47;4955713;28;20522;-93
2023/09/23 01:56:11;;;;;;;1.17;0.70;;;;;;;11.36;100.00;154276.34;4965095;28;20497;-92
2023/09/23 01:58:39;;;;;;;1.30;0.70;;;;;;;11.29;100.00;154259.53;4969092;28;20450;-93
2023/09/23 02:01:05;;;;;;;1.53;0.80;;;;;;;11.28;100.00;154255.66;4945452;28;20914;-92
2023/09/23 02:03:33;;;;;;;1.40;0.73;;;;;;;11.24;100.00;154245.25;4951901;28;20462;-93
2023/09/23 02:06:34;;;;;;;1.77;1.00;;;;;;;11.17;100.00;154227.16;4958932;28;20454;-93
2023/09/23 02:09:00;;;;;;;1.83;0.60;;;;;;;11.14;100.00;154219.38;4937245;28;20462;-93
2023/09/23 02:11:29;;;;;;;1.50;0.90;;;;;;;11.15;100.00;154221.94;4966432;28;20518;-93
2023/09/23 02:13:57;;;;;;;1.20;0.77;;;;;;;11.12;100.00;154214.19;4937559;29;20444;-93
2023/09/23 02:16:24;;;;;;;1.00;0.60;;;;;;;11.04;100.00;154194.72;4945374;28;20435;-93
2023/09/23 02:18:51;;;;;;;1.70;1.00;;;;;;;11.06;100.00;154198.63;4972971;28;20976;-93
2023/09/23 02:21:18;;;;;;;1.50;0.83;;;;;;;10.98;100.00;154180.53;4975738;28;20445;-93
2023/09/23 02:23:45;;;;;;;2.00;1.13;;;;;;;10.99;100.00;154183.09;4975848;28;20467;-93
2023/09/23 02:26:12;;;;;;;1.33;0.83;;;;;;;10.97;100.00;154177.91;4970868;28;20474;-93
2023/09/23 02:28:38;;;;;;;1.10;0.70;;;;;;;10.96;100.00;154174.06;4950734;28;20515;-93
2023/09/23 02:31:06;;;;;;;1.07;0.70;;;;;;;10.91;100.00;154162.34;4957116;28;20441;-93
2023/09/23 02:33:32;;;;;;;1.10;0.87;;;;;;;10.87;100.00;154152.03;4975295;28;20448;-93
2023/09/23 02:36:00;;;;;;;1.43;1.00;;;;;;;10.83;100.00;154140.31;4955594;28;20447;-93
2023/09/23 02:38:27;;;;;;;1.40;0.97;;;;;;;10.91;100.00;154162.34;4946800;28;20497;-93
2023/09/23 02:40:54;;;;;;;1.43;0.90;;;;;;;10.88;100.00;154154.56;4939619;28;20791;-93
2023/09/23 02:43:21;;;;;;;1.30;0.93;;;;;;;10.78;100.00;154128.69;4937211;28;20878;-93
2023/09/23 02:45:49;;;;;;;1.40;0.90;;;;;;;10.77;100.00;154126.13;4946465;28;20973;-93
2023/09/23 02:48:17;;;;;;;1.27;0.90;;;;;;;10.77;100.00;154124.81;4965372;28;20510;-93
2023/09/23 02:50:44;;;;;;;1.10;0.70;;;;;;;10.75;100.00;154119.66;4940475;28;20961;-93
2023/09/23 02:53:11;;;;;;;1.67;1.20;;;;;;;10.74;100.00;154117.03;4950889;28;20456;-93
2023/09/23 02:55:41;;;;;;;1.97;1.00;;;;;;;10.73;100.00;154114.44;4944151;28;20986;-93
2023/09/23 02:58:08;;;;;;;1.40;0.90;;;;;;;10.75;100.00;154119.66;4927852;28;20442;-93
2023/09/23 03:00:36;;;;;;;1.20;0.77;;;;;;;10.70;100.00;154107.97;4951269;28;20671;-93
2023/09/23 03:03:08;;;;;;;1.47;0.90;;;;;;;10.68;100.00;154102.78;4965211;28;20489;-92
2023/09/23 03:05:38;;;;;;;1.40;0.90;;;;;;;10.65;100.00;154093.72;4970331;28;20513;-93
2023/09/23 03:08:07;;;;;;;2.33;1.00;;;;;;;10.66;100.00;154096.31;4955445;28;20474;-92
2023/09/23 03:10:39;;;;;;;1.50;1.10;;;;;;;10.63;100.00;154089.84;4965469;28;20519;-93
2023/09/23 03:13:07;;;;;;;2.27;0.93;;;;;;;10.61;100.00;154083.38;4956909;28;20704;-93
2023/09/23 03:15:41;;;;;;;1.73;1.13;;;;;;;10.62;100.00;154087.25;4946419;28;20459;-92
2023/09/23 03:18:08;;;;;;;1.40;1.00;;;;;;;10.60;100.00;154082.06;4962039;28;20469;-93
2023/09/23 03:20:37;;;;;;;1.90;0.97;;;;;;;10.58;100.00;154076.91;4967074;28;20461;-92
2023/09/23 03:23:10;;;;;;;1.40;1.07;;;;;;;10.59;100.00;154078.22;4972782;28;20470;-92
2023/09/23 03:25:43;;;;;;;1.70;0.90;;;;;;;10.59;100.00;154079.47;4971553;28;20449;-93
2023/09/23 03:28:09;;;;;;;2.20;1.10;;;;;;;10.56;100.00;154071.75;4952996;28;20457;-93
2023/09/23 03:30:36;;;;;;;1.47;1.10;;;;;;;10.52;100.00;154061.34;4958625;28;20453;-93
2023/09/23 03:33:03;;;;;;;1.73;1.13;;;;;;;10.54;100.00;154065.28;4942258;28;20450;-93
2023/09/23 03:35:30;;;;;;;3.83;1.10;;;;;;;10.52;100.00;154060.06;4936112;28;20546;-93
2023/09/23 03:37:58;;;;;;;1.40;0.90;;;;;;;10.51;100.00;154058.75;4945161;28;20909;-92
2023/09/23 03:40:27;;;;;;;3.40;1.17;;;;;;;10.50;100.00;154056.19;4952114;28;20456;-92
2023/09/23 03:42:53;;;;;;;1.30;1.00;;;;;;;10.47;100.00;154048.41;4954926;28;20504;-92
2023/09/23 03:45:20;;;;;;;1.77;0.93;;;;;;;10.45;100.00;154043.25;4950349;28;20878;-92
2023/09/23 03:47:47;;;;;;;1.60;1.03;;;;;;;10.42;100.00;154035.47;4948235;28;20880;-93
2023/09/23 03:50:14;;;;;;;1.10;0.83;;;;;;;10.40;100.00;154030.31;4966333;28;20474;-93
2023/09/23 03:52:41;;;;;;;1.37;1.00;;;;;;;10.35;100.00;154018.63;4948684;28;20442;-92
2023/09/23 03:55:11;;;;;;;3.10;1.10;;;;;;;10.37;100.00;154022.53;4965042;28;20477;-92
2023/09/23 03:57:39;;;;;;;2.60;1.30;;;;;;;10.34;100.00;154014.75;4950262;28;20802;-93
2023/09/23 04:00:14;;;;;;;1.30;1.00;;;;;;;10.30;100.00;154004.38;4971848;28;20476;-93
2023/09/23 04:02:41;;;;;;;1.20;1.00;;;;;;;10.29;100.00;154003.13;4938224;28;20973;-93
2023/09/23 04:05:07;;;;;;;1.20;1.00;;;;;;;10.31;100.00;154007.00;4945799;28;20510;-92
2023/09/23 04:07:34;;;;;;;1.50;1.00;;;;;;;10.25;100.00;153992.75;4961557;28;20478;-92
2023/09/23 04:10:00;;;;;;;1.47;0.97;;;;;;;10.22;100.00;153983.66;4941574;28;20459;-92
2023/09/23 04:12:28;;;;;;;1.40;1.10;;;;;;;10.16;100.00;153968.16;4976959;28;20464;-92
2023/09/23 04:14:55;;;;;;;1.17;0.90;;;;;;;10.12;100.00;153959.09;4972533;28;20904;-92
2023/09/23 04:17:24;;;;;;;1.20;0.90;;;;;;;10.07;100.00;153944.81;4954895;28;20515;-92
2023/09/23 04:19:50;;;;;;;1.47;0.97;;;;;;;10.09;100.00;153951.25;4946624;28;20463;-92
2023/09/23 04:22:18;;;;;;;2.07;1.30;;;;;;;10.11;100.00;153955.19;4967197;28;20465;-93
2023/09/23 04:24:44;;;;;;;1.80;1.20;;;;;;;10.11;100.00;153956.44;4972219;28;20437;-93
2023/09/23 04:27:11;;;;;;;1.30;0.80;;;;;;;10.10;100.00;153952.56;4954124;28;20477;-92
2023/09/23 04:29:39;;;;;;;1.10;0.93;;;;;;;10.11;100.00;153955.19;4974257;28;20495;-92
2023/09/23 04:32:06;;;;;;;1.60;1.17;;;;;;;10.05;100.00;153939.63;4954510;28;20446;-93
2023/09/23 04:34:35;;;;;;;1.23;1.00;;;;;;;10.01;100.00;153930.56;4938824;28;20452;-93
2023/09/23 04:37:04;;;;;;;1.43;1.23;;;;;;;10.03;100.00;153934.47;4951680;28;20444;-92
2023/09/23 04:39:31;;;;;;;1.73;0.97;;;;;;;10.01;100.00;153929.25;4967327;28;20456;-92
2023/09/23 04:41:58;;;;;;;1.53;1.10;;;;;;;9.98;100.00;153922.78;4949708;28;20450;-92
2023/09/23 04:44:24;;;;;;;2.07;1.10;;;;;;;10.01;100.00;153929.25;4954382;28;20447;-92
2023/09/23 04:46:53;;;;;;;1.50;1.17;;;;;;;9.99;100.00;153924.09;4962038;28;20474;-92
2023/09/23 04:49:19;;;;;;;1.67;1.20;;;;;;;9.99;100.00;153924.09;4967615;28;20949;-92
2023/09/23 04:51:46;;;;;;;2.20;1.20;;;;;;;9.98;100.00;153921.53;4946606;28;20464;-92
2023/09/23 04:54:13;;;;;;;1.97;1.20;;;;;;;10.01;100.00;153929.25;4955452;28;20949;-92
2023/09/23 04:56:41;;;;;;;1.87;0.97;;;;;;;9.98;100.00;153922.78;4951626;28;20461;-92
2023/09/23 04:59:07;;;;;;;1.67;1.23;;;;;;;9.97;100.00;153920.22;4948491;28;20935;-92
2023/09/23 05:01:34;;;;;;;1.50;1.10;;;;;;;9.99;100.00;153924.09;4968816;28;20561;-92
2023/09/23 05:04:08;;;;;;;2.40;1.40;;;;;;;9.96;100.00;153916.31;4971797;28;20882;-92
2023/09/23 05:06:35;;;;;;;6.60;1.20;;;;;;;9.97;100.00;153918.91;4989190;28;20559;-92
2023/09/23 05:09:02;;;;;;;1.93;0.90;;;;;;;9.95;100.00;153915.06;4968553;28;20469;-93
2023/09/23 05:11:28;;;;;;;1.60;1.30;;;;;;;9.95;100.00;153915.06;4982666;28;20455;-92
2023/09/23 05:13:55;;;;;;;1.80;1.13;;;;;;;9.95;100.00;153913.75;4978546;28;20458;-91
2023/09/23 05:16:22;;;;;;;1.50;1.10;;;;;;;9.96;100.00;153917.63;4976299;28;20453;-91
2023/09/23 05:18:49;;;;;;;1.50;1.00;;;;;;;9.99;100.00;153924.09;4980477;28;20514;-92
2023/09/23 05:21:24;;;;;;;4.40;1.10;;;;;;;9.96;100.00;153917.63;4984043;28;20462;-93
2023/09/23 05:23:52;;;;;;;1.67;1.00;;;;;;;9.95;100.00;153913.75;4949844;28;20464;-92
2023/09/23 05:26:19;;;;;;;1.73;1.10;;;;;;;9.94;100.00;153911.16;4981308;28;20643;-92
2023/09/23 05:28:45;;;;;;;1.60;1.00;;;;;;;9.96;100.00;153916.31;4960730;28;20488;-92
2023/09/23 05:31:13;;;;;;;1.77;1.30;;;;;;;10.01;100.00;153929.25;4943428;28;20443;-92
2023/09/23 05:33:40;;;;;;;1.50;1.20;;;;;;;9.99;100.00;153924.09;4959155;28;20886;-92
2023/09/23 05:36:07;;;;;;;1.27;1.03;;;;;;;10.01;100.00;153930.56;4977318;28;20452;-92
2023/09/23 05:38:36;;;;;;;1.50;1.00;;;;;;;10.03;100.00;153934.47;4954489;28;20455;-91
2023/09/23 05:41:04;;;;;;;1.30;1.10;;;;;;;10.05;100.00;153939.63;4973755;28;20490;-92
2023/09/23 05:43:30;;;;;;;2.17;1.20;;;;;;;10.10;100.00;153952.56;4965703;28;20454;-92
2023/09/23 05:45:57;;;;;;;2.00;1.10;;;;;;;10.11;100.00;153955.19;4970004;28;20465;-92
2023/09/23 05:48:24;;;;;;;1.90;1.10;;;;;;;10.12;100.00;153957.72;4956002;28;20476;-92
2023/09/23 05:50:52;;;;;;;2.07;1.00;;;;;;;10.13;100.00;153960.41;4948599;28;20459;-92
2023/09/23 05:53:18;;;;;;;1.50;1.10;;;;;;;10.16;100.00;153968.16;4975123;28;20455;-91
2023/09/23 05:55:47;;;;;;;1.60;1.10;;;;;;;10.19;100.00;153975.94;4976211;28;20452;-92
2023/09/23 05:58:13;;;;;;;2.07;1.10;;;;;;;10.19;100.00;153977.19;4958983;28;20804;-92
2023/09/23 06:00:40;;;;;;;1.60;1.30;;;;;;;10.21;100.00;153981.09;4975489;28;20450;-91
2023/09/23 06:03:07;;;;;;;2.03;1.37;;;;;;;10.26;100.00;153994.03;4959698;28;20585;-90
2023/09/23 06:05:33;;;;;;;1.57;1.20;;;;;;;10.29;100.00;154001.81;4958691;28;20545;-91
2023/09/23 06:08:00;;;;;;;1.60;1.17;;;;;;;10.30;100.00;154004.38;4972400;28;20485;-92
2023/09/23 06:10:26;;;;;;;2.57;1.13;;;;;;;10.35;100.00;154018.63;4962666;28;20828;-92
2023/09/23 06:12:55;;;;;;;1.30;1.00;;;;;;;10.41;100.00;154032.88;4977848;28;20460;-91
2023/09/23 06:15:22;;;;;;;1.90;1.53;;;;;;;10.44;100.00;154040.63;4968561;28;20576;-91
2023/09/23 06:17:48;;;;;;;2.70;1.30;;;;;;;10.48;100.00;154051.03;4946398;28;20493;-92
2023/09/23 06:20:15;;;;;;;1.40;0.93;;;;;;;10.52;100.00;154061.34;4978343;28;20455;-92
2023/09/23 06:22:41;;;;;;;2.13;1.20;;;;;;;10.57;100.00;154073.00;4975089;28;20465;-92
2023/09/23 06:25:09;;;;;;;1.80;1.10;;;;;;;10.62;100.00;154087.25;4974621;28;20456;-92
2023/09/23 06:27:36;;;;;;;2.03;1.40;;;;;;;10.67;100.00;154100.19;4977817;28;20478;-92
2023/09/23 06:30:05;;;;;;;1.67;1.10;;;;;;;10.75;100.00;154119.66;4975616;28;20456;-92
2023/09/23 06:32:32;;;;;;;5.97;1.57;;;;;;;10.80;100.00;154133.84;4957750;28;20615;-92
2023/09/23 06:34:59;;;;;;;1.40;1.00;;;;;;;10.84;100.00;154142.94;4967592;28;20459;-91
2023/09/23 06:37:25;;;;;;;2.23;1.40;;;;;;;10.90;100.00;154159.78;4971819;28;20923;-91
2023/09/23 06:39:52;;;;;;;2.03;1.40;;;;;;;10.96;100.00;154175.31;4975470;28;21268;-92
2023/09/23 06:42:19;;;;;;;1.40;1.10;;;;;;;11.04;100.00;154193.47;4971612;28;20931;-91
2023/09/23 06:44:46;;;;;;;1.30;0.97;;;;;;;11.13;100.00;154218.06;4957401;28;20492;-92
2023/09/23 06:47:14;;;;;;;1.83;1.20;;;;;;;11.23;100.00;154242.66;4968794;28;20482;-91
2023/09/23 06:49:40;;;;;;;1.33;1.10;;;;;;;11.33;100.00;154269.84;4968376;28;20454;-91
2023/09/23 06:52:07;;;;;;;1.90;1.33;;;;;;;11.46;100.00;154303.53;4941748;28;20534;-91
2023/09/23 06:54:34;;;;;;;1.30;0.90;;;;;;;11.57;100.00;154332.06;4973209;28;20466;-91
2023/09/23 06:57:00;;;;;;;1.87;1.40;;;;;;;11.69;100.00;154361.94;4981663;28;20550;-91
2023/09/23 06:59:27;;;;;;;1.57;1.20;;;;;;;11.82;100.00;154395.63;4976544;28;20465;-91
2023/09/23 07:01:53;;;;;;;2.20;1.50;;;;;;;11.96;100.00;154431.94;4972083;28;20497;-91
2023/09/23 07:04:21;;;;;;;1.77;1.30;;;;;;;12.10;100.00;154468.19;4972007;28;20516;-90
2023/09/23 07:06:48;;;;;;;2.77;1.10;;;;;;;12.20;100.00;154492.84;4963447;28;20469;-90
2023/09/23 07:09:14;;;;;;;1.27;0.80;;;;;;;12.34;100.00;154527.88;4969155;28;20462;-90
2023/09/23 07:11:41;;;;;;;3.13;1.30;;;;;;;12.51;100.00;154573.25;4947921;28;20451;-89
2023/09/23 07:14:08;;;;;;;2.13;1.20;;;;;;;12.72;100.00;154626.41;4940623;28;20489;-90
2023/09/23 07:16:34;;;;;;;1.67;1.10;;;;;;;12.93;100.00;154679.56;4943113;28;20760;-89
2023/09/23 07:19:01;;;;;;;1.73;1.20;;;;;;;13.15;100.00;154738.03;4974404;28;20804;-89
2023/09/23 07:21:29;;;;;;;3.53;1.07;;;;;;;13.36;100.00;154791.22;4980065;28;20457;-89
2023/09/23 07:23:57;;;;;;;1.57;1.03;;;;;;;13.56;100.00;154841.78;4945637;28;20466;-88
2023/09/23 07:26:24;;;;;;;1.90;1.13;;;;;;;13.71;100.00;154880.78;4973483;28;20462;-89
2023/09/23 07:28:51;;;;;;;3.43;1.00;;;;;;;13.88;100.00;154924.88;4960406;28;20995;-88
2023/09/23 07:31:20;;;;;;;3.43;1.23;;;;;;;14.09;100.00;154979.41;4957463;28;21868;-88
2023/09/23 07:33:47;;;;;;;1.40;1.00;;;;;;;14.35;100.00;155046.97;4954403;28;20505;-87
2023/09/23 07:36:14;;;;;;;2.00;1.00;;;;;;;14.54;100.00;155095.03;4970508;28;20486;-87
2023/09/23 07:38:42;;;;;;;1.97;1.00;;;;;;;14.72;100.00;155141.78;4971137;28;20454;-87
2023/09/23 07:41:09;;;;;;;1.63;1.10;;;;;;;14.80;100.00;155161.31;4979372;28;20445;-87
2023/09/23 07:43:38;;;;;;;2.07;1.27;;;;;;;14.93;100.00;155196.34;4973834;28;20461;-87
2023/09/23 07:46:05;;;;;;;1.27;0.90;;;;;;;15.00;99.20;155214.56;4965996;28;20445;-87
2023/09/23 07:48:31;;;;;;;1.80;1.17;;;;;;;15.15;98.29;155252.22;4960202;28;20494;-88
2023/09/23 07:50:58;;;;;;;1.10;0.80;;;;;;;15.38;97.55;155311.97;4950197;28;20539;-88
2023/09/23 07:53:25;;;;;;;1.30;0.80;;;;;;;15.61;96.66;155371.84;4943750;28;20453;-87
2023/09/23 07:55:53;;;;;;;1.43;0.87;;;;;;;15.81;95.64;155423.81;4943277;28;20471;-87
2023/09/23 07:58:19;;;;;;;1.47;0.80;;;;;;;15.93;95.06;155452.44;4924135;28;20569;-87
2023/09/23 08:00:46;;;;;;;1.50;0.97;;;;;;;16.04;94.44;155482.38;4934444;28;20489;-87
2023/09/23 08:03:12;;;;;;;1.40;0.70;;;;;;;16.15;93.33;155509.66;4927872;28;20452;-88
2023/09/23 08:05:39;;;;;;;1.40;0.90;;;;;;;16.39;92.71;155572.06;4942416;28;20645;-88
2023/09/23 08:08:07;;;;;;;1.27;0.80;;;;;;;16.47;91.61;155591.59;4952597;28;20473;-88
2023/09/23 08:10:33;;;;;;;1.97;0.60;;;;;;;16.50;89.21;155600.66;4956562;28;20478;-88
2023/09/23 08:13:02;;;;;;;2.57;0.70;;;;;;;16.56;89.72;155615.03;4959628;28;20460;-88
2023/09/23 08:15:29;;;;;;;1.20;0.80;;;;;;;16.50;88.37;155600.66;4961226;28;20535;-87
2023/09/23 08:18:17;;;;;;;1.47;1.10;;;;;;;16.54;89.70;155611.16;4960450;28;20899;-87
2023/09/23 08:20:43;;;;;;;3.00;1.03;;;;;;;16.57;90.35;155617.66;4933946;28;21222;-87
2023/09/23 08:23:10;;;;;;;1.20;0.67;;;;;;;16.51;87.44;155603.28;4960242;28;21010;-87
2023/09/23 08:25:36;;;;;;;1.57;0.60;;;;;;;16.50;88.66;155599.38;4965232;28;20465;-88
2023/09/23 08:28:05;;;;;;;1.20;0.70;;;;;;;16.39;88.68;155573.34;4958538;28;20509;-88
2023/09/23 08:30:31;;;;;;;1.60;0.90;;;;;;;16.32;86.91;155553.84;4976329;28;20465;-87
2023/09/23 08:32:58;;;;;;;2.00;0.83;;;;;;;16.30;89.15;155548.66;4962987;28;20459;-89
2023/09/23 08:35:24;;;;;;;2.23;1.00;;;;;;;16.29;91.19;155547.34;4960512;28;20473;-89
2023/09/23 08:37:51;;;;;;;2.57;1.47;;;;;;;16.21;89.58;155525.25;4945838;28;20450;-89
2023/09/23 08:40:19;;;;;;;3.60;0.93;;;;;;;16.16;87.14;155512.25;4958210;28;20556;-89
2023/09/23 08:42:50;;;;;;;3.17;1.10;;;;;;;16.16;90.15;155512.25;4961001;28;20461;-90
2023/09/23 08:45:20;;;;;;;1.87;1.10;;;;;;;16.09;87.77;155495.38;4951473;28;20465;-88
2023/09/23 08:47:47;;;;;;;2.57;0.90;;;;;;;16.11;88.38;155499.25;4966714;28;20795;-88
2023/09/23 08:50:14;;;;;;;1.77;1.17;;;;;;;16.10;89.12;155496.63;4951885;28;20451;-89
2023/09/23 08:52:41;;;;;;;1.60;1.00;;;;;;;16.10;88.86;155496.63;4953607;28;20458;-89
2023/09/23 08:55:10;;;;;;;1.13;0.70;;;;;;;16.09;87.34;155494.06;4975391;28;20534;-87
2023/09/23 08:57:38;;;;;;;2.80;1.07;;;;;;;16.06;88.36;155486.25;4965561;28;20461;-89
2023/09/23 09:00:08;;;;;;;1.20;0.67;;;;;;;16.03;88.91;155479.75;4964502;28;20455;-89
2023/09/23 09:02:36;;;;;;;1.90;0.73;;;;;;;16.06;90.28;155486.25;4983805;28;20576;-89
2023/09/23 09:05:02;;;;;;;2.43;0.90;;;;;;;16.02;89.92;155477.13;4954556;28;20517;-89
2023/09/23 09:07:33;;;;;;;2.10;0.87;;;;;;;15.99;88.08;155468.06;4964895;28;20466;-89
2023/09/23 09:10:00;;;;;;;2.70;0.80;;;;;;;15.92;85.24;155451.13;4967902;28;20940;-89
2023/09/23 09:12:26;;;;;;;1.53;0.70;;;;;;;15.97;89.20;155462.81;4964139;28;20932;-89
2023/09/23 09:14:53;;;;;;;1.10;0.70;;;;;;;16.00;86.62;155470.63;4973496;28;21311;-89
2023/09/23 09:17:20;;;;;;;1.77;0.70;;;;;;;16.07;85.11;155488.88;4975647;28;20461;-89
2023/09/23 09:19:49;;;;;;;1.60;1.00;;;;;;;16.09;85.97;155494.06;4972961;28;20454;-90
2023/09/23 09:22:16;;;;;;;1.60;0.80;;;;;;;16.09;86.45;155494.06;4965888;28;20973;-89
2023/09/23 09:24:43;;;;;;;2.00;1.00;;;;;;;16.12;87.73;155501.88;4960400;28;21927;-90
2023/09/23 09:27:12;;;;;;;2.43;0.70;;;;;;;16.12;89.40;155501.88;4964663;28;20468;-89
2023/09/23 09:29:40;;;;;;;1.43;0.87;;;;;;;16.10;85.59;155497.94;4973615;28;20798;-89
2023/09/23 09:32:09;;;;;;;1.60;0.90;;;;;;;16.14;85.35;155507.06;4959153;28;20464;-89
2023/09/23 09:34:45;;;;;;;3.23;1.07;;;;;;;16.08;87.05;155491.44;4961110;28;20567;-89
2023/09/23 09:37:14;;;;;;;1.93;0.77;;;;;;;16.01;85.42;155473.25;4990910;28;20458;-89
2023/09/23 09:39:46;;;;;;;2.27;0.90;;;;;;;15.97;83.26;155464.13;4973250;28;20526;-88
2023/09/23 09:42:13;;;;;;;1.23;0.60;;;;;;;16.01;85.32;155473.25;4973148;28;20848;-89
2023/09/23 09:44:42;;;;;;;1.57;1.00;;;;;;;15.95;82.34;155458.94;4973791;28;20462;-89
2023/09/23 09:47:09;;;;;;;2.40;1.20;;;;;;;16.02;86.94;155475.88;4974229;28;20529;-89
2023/09/23 09:49:37;;;;;;;1.73;0.93;;;;;;;15.95;84.51;155457.63;4976691;28;20483;-90
2023/09/23 09:52:04;;;;;;;1.13;0.70;;;;;;;15.97;82.35;155462.81;4974003;28;20843;-89
2023/09/23 09:54:36;;;;;;;2.50;1.23;;;;;;;16.01;83.36;155473.25;4961215;28;20453;-89
2023/09/23 09:57:07;;;;;;;2.10;1.00;;;;;;;16.07;84.36;155488.88;4964658;28;20588;-90
2023/09/23 09:59:35;;;;;;;1.43;0.90;;;;;;;16.10;85.98;155496.63;4976110;28;20931;-90
2023/09/23 10:02:04;;;;;;;1.47;1.00;;;;;;;16.12;83.30;155501.88;4971749;28;20487;-90
2023/09/23 10:04:31;;;;;;;1.57;0.80;;;;;;;16.12;84.65;155501.88;4959829;28;20926;-90
2023/09/23 10:07:20;;;;;;;2.00;0.87;;;;;;;16.08;80.01;155492.75;4982131;28;20470;-92
2023/09/23 10:09:54;;;;;;;1.97;0.80;;;;;;;16.09;80.49;155494.06;4960449;28;20489;-92
2023/09/23 10:12:26;;;;;;;4.80;1.10;;;;;;;16.15;83.14;155510.94;4977397;28;20473;-90
2023/09/23 10:15:03;;;;;;;1.57;0.80;;;;;;;16.15;82.47;155510.94;4961490;28;20458;-90
2023/09/23 10:17:32;;;;;;;1.47;0.80;;;;;;;16.18;83.12;155518.75;4988072;28;20454;-91
2023/09/23 10:19:59;;;;;;;2.47;0.73;;;;;;;16.16;77.46;155512.25;4981537;28;20458;-91
2023/09/23 10:22:29;;;;;;;1.40;0.80;;;;;;;16.29;81.09;155547.34;4970474;28;20465;-91
2023/09/23 10:25:05;;;;;;;1.73;0.77;;;;;;;16.41;83.24;155578.56;4971542;28;20464;-91
2023/09/23 10:27:36;;;;;;;2.67;0.90;;;;;;;16.46;80.39;155590.28;4970144;28;20468;-90
2023/09/23 10:30:04;;;;;;;2.87;1.00;;;;;;;16.54;77.70;155609.84;4976625;28;20449;-90
2023/09/23 10:32:31;;;;;;;1.70;1.00;;;;;;;16.53;77.24;155608.53;4948548;28;21060;-90
2023/09/23 10:34:58;;;;;;;4.33;1.00;;;;;;;16.58;83.53;155621.53;4975888;28;20469;-90
2023/09/23 10:37:30;;;;;;;1.83;0.90;;;;;;;16.51;80.17;155601.97;4975609;28;21036;-90
2023/09/23 10:39:57;;;;;;;2.60;0.80;;;;;;;16.54;80.62;155609.84;4976241;28;20458;-90
2023/09/23 10:42:25;;;;;;;1.40;0.80;;;;;;;16.55;80.75;155613.72;4975649;28;21294;-90
2023/09/23 10:44:52;;;;;;;1.50;0.80;;;;;;;16.44;78.67;155585.09;4978956;28;20460;-90
2023/09/23 10:47:18;;;;;;;1.40;0.63;;;;;;;16.45;81.85;155587.66;4977128;28;21025;-90
2023/09/23 10:49:45;;;;;;;2.10;0.90;;;;;;;16.39;79.69;155572.06;4979047;28;20613;-90
2023/09/23 10:52:12;;;;;;;1.73;0.80;;;;;;;16.40;81.62;155575.97;4980714;28;20926;-90
2023/09/23 10:54:40;;;;;;;2.83;1.00;;;;;;;16.36;77.35;155564.28;4969916;28;20462;-90
2023/09/23 10:57:07;;;;;;;1.30;0.80;;;;;;;16.35;80.12;155561.66;4966425;28;21640;-90
2023/09/23 10:59:36;;;;;;;1.10;0.63;;;;;;;16.37;83.76;155566.84;4988609;28;20454;-90
2023/09/23 11:02:05;;;;;;;1.67;0.80;;;;;;;16.36;84.36;155564.28;4970380;28;20478;-90
2023/09/23 11:04:31;;;;;;;1.70;0.73;;;;;;;16.22;81.69;155527.84;4973488;28;20614;-90
2023/09/23 11:07:20;;;;;;;1.57;1.00;;;;;;;16.18;79.66;155518.75;4947139;28;20545;-90
2023/09/23 11:09:47;;;;;;;1.50;0.97;;;;;;;16.30;84.58;155549.97;4969230;28;20583;-90
2023/09/23 11:12:15;;;;;;;3.90;0.90;;;;;;;16.19;77.54;155520.03;4980924;28;20470;-91
2023/09/23 11:14:43;;;;;;;1.90;0.80;;;;;;;16.34;74.90;155559.06;4957950;28;20462;-90
2023/09/23 11:17:20;;;;;;;1.77;1.00;;;;;;;16.49;79.57;155598.09;4943700;28;20477;-91
2023/09/23 11:19:53;;;;;;;2.13;1.10;;;;;;;16.50;74.63;155600.66;4942559;28;20476;-90
2023/09/23 11:22:23;;;;;;;1.63;0.87;;;;;;;16.61;76.88;155629.34;4971229;28;20465;-90